Gale C — WDC8728 — position and weather

sailwx.info

Track history (hours):
 
Tides and Currents Weather Stations Pressure Air Temp Water Temp Dewpoint Dewpoint Depression Visibility Wind Speed Wind Dir Waves Ship Positions

Gale C

Owner: Ingram Barge Company LLC, NASHVILLE, TN. More information available from US FCC via Universal Licensing System and Coast Guard Vessel Documentation Center.

Last reported at 2018-May-16 08:19 UTC. Time now 2018-May-25 01:13 UTC.
Position N 32°49' W 091°09'.
Warning: this ship's position is 8 days out of date.

Length 56 m; draft 3 m.

Type: Towing. MMSI: 367092210.

Date/timePositionNaut miles runAvg speedWind from/ knotsBaromVisibWave heightAir tempDewpointWater temp
2018-May-16 08:19N 32°49' W 091°09'1 3.5
2018-May-16 08:00N 32°48' W 091°10'1 1.7
2018-May-16 07:30N 32°47' W 091°09'2 4.3
2018-May-16 07:00N 32°45' W 091°09'2 3.6
2018-May-16 06:30N 32°44' W 091°07'2 4.4
2018-May-16 06:00N 32°44' W 091°04'2 3.9
2018-May-16 05:30N 32°42' W 091°04'1 2.5
2018-May-16 04:59N 32°41' W 091°05'0 0.3
2018-May-16 04:19N 32°41' W 091°05'2 2.3
2018-May-16 03:34N 32°40' W 091°07'1 0.8
2018-May-16 02:35N 32°40' W 091°08'0 4.4
2018-May-16 02:30N 32°40' W 091°08'2 4.3
2018-May-16 02:00N 32°38' W 091°09'2 4.5
2018-May-16 01:30N 32°36' W 091°08'2 4.5
2018-May-16 01:00N 32°34' W 091°06'2 4.3
2018-May-16 00:30N 32°32' W 091°06'2 4.5
2018-May-16 00:00N 32°30' W 091°07'2 4.2
2018-May-15 23:30N 32°28' W 091°06'2 4.6
2018-May-15 23:00N 32°27' W 091°04'2 4.2
2018-May-15 22:30N 32°26' W 091°02'2 4.0
2018-May-15 22:00N 32°25' W 090°60'2 4.2
2018-May-15 21:30N 32°23' W 091°00'2 3.5
2018-May-15 21:00N 32°21' W 090°59'2 4.8
2018-May-15 20:30N 32°21' W 090°56'2 4.4
2018-May-15 20:00N 32°20' W 090°54'2 3.5
2018-May-15 19:30N 32°18' W 090°55'1 1.2
2018-May-15 19:00N 32°18' W 090°55'0 0.0
2018-May-15 18:30N 32°18' W 090°55'0 0.0
2018-May-15 18:00N 32°18' W 090°55'0 0.2
2018-May-15 17:30N 32°18' W 090°56'1 1.7
2018-May-15 17:00N 32°17' W 090°56'2 3.9
2018-May-15 16:30N 32°16' W 090°58'2 4.3
2018-May-15 16:00N 32°14' W 090°59'2 4.7
2018-May-15 15:30N 32°12' W 090°59'2 4.0
2018-May-15 15:00N 32°10' W 091°00'2 4.4
2018-May-15 14:30N 32°08' W 091°01'2 3.5
2018-May-15 14:00N 32°07' W 091°03'2 4.1
2018-May-15 13:30N 32°08' W 091°05'2 3.9
2018-May-15 13:00N 32°06' W 091°06'3 5.2
2018-May-15 12:21N 32°04' W 091°03'1 4.2
2018-May-15 12:00N 32°02' W 091°04'2 4.3
2018-May-15 11:28N 32°00' W 091°05'2 4.5
2018-May-15 11:00N 31°59' W 091°07'2 4.8
2018-May-15 10:30N 31°59' W 091°10'2 4.2
2018-May-15 10:00N 31°57' W 091°11'2 4.4
2018-May-15 09:28N 31°55' W 091°12'3 4.4
2018-May-15 08:54N 31°53' W 091°13'2 4.6
2018-May-15 08:30N 31°52' W 091°15'5 4.0
2018-May-15 07:15N 31°50' W 091°21'64 3.3
2018-May-14 11:37N 30°47' W 091°33'1 4.2
2018-May-14 11:29N 30°47' W 091°34'6 2.4
2018-May-14 09:00N 30°44' W 091°28'  
2018-May-09 16:10N 31°57' W 091°11'6 8.6
2018-May-09 15:28N 32°00' W 091°05'4 8.4
2018-May-09 15:00N 32°04' W 091°04'4 8.8
2018-May-09 14:30N 32°07' W 091°06'4 8.0
2018-May-09 14:00N 32°07' W 091°02'4 9.0
2018-May-09 13:30N 32°11' W 090°60'5 9.2
2018-May-09 13:00N 32°16' W 090°58'5 9.9
2018-May-09 12:30N 32°19' W 090°54'2 4.0
2018-May-09 12:00N 32°21' W 090°56'4 7.7
2018-May-09 11:30N 32°22' W 091°00'3 7.0
2018-May-09 11:00N 32°25' W 091°00'3 5.2
2018-May-09 10:30N 32°26' W 091°03'4 7.7
2018-May-09 10:00N 32°28' W 091°07'4 8.9
2018-May-09 09:30N 32°33' W 091°06'5 9.2
2018-May-09 09:00N 32°36' W 091°09'4 8.2
2018-May-09 08:30N 32°40' W 091°07'4 8.8
2018-May-09 08:00N 32°43' W 091°03'4 8.2
2018-May-09 07:28N 32°44' W 091°08'4 8.7
2018-May-09 07:00N 32°48' W 091°09'5 9.1
2018-May-09 06:30N 32°52' W 091°06'4 8.8
2018-May-09 06:00N 32°56' W 091°04'  
2018-May-06 09:45N 38°31' W 090°16'1 3.2
2018-May-06 09:30N 38°32' W 090°16'0 0.4
2018-May-06 09:00N 38°32' W 090°15'0 0.0
2018-May-06 08:30N 38°32' W 090°15'  
Track history (hours):
 
Tides and Currents Weather Stations Pressure Air Temp Water Temp Dewpoint Dewpoint Depression Visibility Wind Speed Wind Dir Waves Ship Positions

Gale C

Owner: Ingram Barge Company LLC, NASHVILLE, TN. More information available from US FCC via Universal Licensing System and Coast Guard Vessel Documentation Center.

Last reported at 2018-May-16 08:19 UTC. Time now 2018-May-25 01:13 UTC.
Position N 32°49' W 091°09'.
Warning: this ship's position is 8 days out of date.

Length 56 m; draft 3 m.

Type: Towing. MMSI: 367092210.

Date/timePositionNaut miles runAvg speedWind from/ knotsBaromVisibWave heightAir tempDewpointWater temp
2018-May-16 08:19N 32°49' W 091°09'1 3.5
2018-May-16 08:00N 32°48' W 091°10'1 1.7
2018-May-16 07:30N 32°47' W 091°09'2 4.3
2018-May-16 07:00N 32°45' W 091°09'2 3.6
2018-May-16 06:30N 32°44' W 091°07'2 4.4
2018-May-16 06:00N 32°44' W 091°04'2 3.9
2018-May-16 05:30N 32°42' W 091°04'1 2.5
2018-May-16 04:59N 32°41' W 091°05'0 0.3
2018-May-16 04:19N 32°41' W 091°05'2 2.3
2018-May-16 03:34N 32°40' W 091°07'1 0.8
2018-May-16 02:35N 32°40' W 091°08'0 4.4
2018-May-16 02:30N 32°40' W 091°08'2 4.3
2018-May-16 02:00N 32°38' W 091°09'2 4.5
2018-May-16 01:30N 32°36' W 091°08'2 4.5
2018-May-16 01:00N 32°34' W 091°06'2 4.3
2018-May-16 00:30N 32°32' W 091°06'2 4.5
2018-May-16 00:00N 32°30' W 091°07'2 4.2
2018-May-15 23:30N 32°28' W 091°06'2 4.6
2018-May-15 23:00N 32°27' W 091°04'2 4.2
2018-May-15 22:30N 32°26' W 091°02'2 4.0
2018-May-15 22:00N 32°25' W 090°60'2 4.2
2018-May-15 21:30N 32°23' W 091°00'2 3.5
2018-May-15 21:00N 32°21' W 090°59'2 4.8
2018-May-15 20:30N 32°21' W 090°56'2 4.4
2018-May-15 20:00N 32°20' W 090°54'2 3.5
2018-May-15 19:30N 32°18' W 090°55'1 1.2
2018-May-15 19:00N 32°18' W 090°55'0 0.0
2018-May-15 18:30N 32°18' W 090°55'0 0.0
2018-May-15 18:00N 32°18' W 090°55'0 0.2
2018-May-15 17:30N 32°18' W 090°56'1 1.7
2018-May-15 17:00N 32°17' W 090°56'2 3.9
2018-May-15 16:30N 32°16' W 090°58'2 4.3
2018-May-15 16:00N 32°14' W 090°59'2 4.7
2018-May-15 15:30N 32°12' W 090°59'2 4.0
2018-May-15 15:00N 32°10' W 091°00'2 4.4
2018-May-15 14:30N 32°08' W 091°01'2 3.5
2018-May-15 14:00N 32°07' W 091°03'2 4.1
2018-May-15 13:30N 32°08' W 091°05'2 3.9
2018-May-15 13:00N 32°06' W 091°06'3 5.2
2018-May-15 12:21N 32°04' W 091°03'1 4.2
2018-May-15 12:00N 32°02' W 091°04'2 4.3
2018-May-15 11:28N 32°00' W 091°05'2 4.5
2018-May-15 11:00N 31°59' W 091°07'2 4.8
2018-May-15 10:30N 31°59' W 091°10'2 4.2
2018-May-15 10:00N 31°57' W 091°11'2 4.4
2018-May-15 09:28N 31°55' W 091°12'3 4.4
2018-May-15 08:54N 31°53' W 091°13'2 4.6
2018-May-15 08:30N 31°52' W 091°15'5 4.0
2018-May-15 07:15N 31°50' W 091°21'64 3.3
2018-May-14 11:37N 30°47' W 091°33'1 4.2
2018-May-14 11:29N 30°47' W 091°34'6 2.4
2018-May-14 09:00N 30°44' W 091°28'  
2018-May-09 16:10N 31°57' W 091°11'6 8.6
2018-May-09 15:28N 32°00' W 091°05'4 8.4
2018-May-09 15:00N 32°04' W 091°04'4 8.8
2018-May-09 14:30N 32°07' W 091°06'4 8.0
2018-May-09 14:00N 32°07' W 091°02'4 9.0
2018-May-09 13:30N 32°11' W 090°60'5 9.2
2018-May-09 13:00N 32°16' W 090°58'5 9.9
2018-May-09 12:30N 32°19' W 090°54'2 4.0
2018-May-09 12:00N 32°21' W 090°56'4 7.7
2018-May-09 11:30N 32°22' W 091°00'3 7.0
2018-May-09 11:00N 32°25' W 091°00'3 5.2
2018-May-09 10:30N 32°26' W 091°03'4 7.7
2018-May-09 10:00N 32°28' W 091°07'4 8.9
2018-May-09 09:30N 32°33' W 091°06'5 9.2
2018-May-09 09:00N 32°36' W 091°09'4 8.2
2018-May-09 08:30N 32°40' W 091°07'4 8.8
2018-May-09 08:00N 32°43' W 091°03'4 8.2
2018-May-09 07:28N 32°44' W 091°08'4 8.7
2018-May-09 07:00N 32°48' W 091°09'5 9.1
2018-May-09 06:30N 32°52' W 091°06'4 8.8
2018-May-09 06:00N 32°56' W 091°04'  
2018-May-06 09:45N 38°31' W 090°16'1 3.2
2018-May-06 09:30N 38°32' W 090°16'0 0.4
2018-May-06 09:00N 38°32' W 090°15'0 0.0
2018-May-06 08:30N 38°32' W 090°15'  

Dump ship's entire track history